Time,TemperatureF,DewpointF,PressureIn,WindDirection,WindDirectionDegrees,WindSpeedMPH,WindSpeedGustMPH,Humidity,HourlyPrecipIn,Conditions,Clouds,dailyrainin,SoftwareType,DateUTC
2013-11-27 00:00:00,57.9,57.1,29.62,SSE,157,9.0,9.0,97,0.14,,,0.51,Wunderground v.1.15,2013-11-27 05:00:00,
2013-11-27 00:10:00,58.0,57.4,29.60,ESE,111,9.0,9.0,98,0.07,,,0.01,Wunderground v.1.15,2013-11-27 05:10:00,
2013-11-27 00:20:00,58.1,57.3,29.59,SSE,157,8.0,10.0,97,0.05,,,0.01,Wunderground v.1.15,2013-11-27 05:20:00,
2013-11-27 00:30:00,58.0,57.2,29.58,ESE,110,7.0,7.0,97,0.17,,,0.04,Wunderground v.1.15,2013-11-27 05:30:00,
2013-11-27 00:40:00,58.0,57.4,29.57,SE,127,8.0,24.0,98,0.09,,,0.05,Wunderground v.1.15,2013-11-27 05:40:00,
2013-11-27 00:50:00,58.5,57.9,29.57,SE,129,7.0,24.0,98,0.07,,,0.06,Wunderground v.1.15,2013-11-27 05:50:00,
2013-11-27 01:00:00,58.5,57.9,29.56,West,266,7.0,7.0,98,0.18,,,0.10,Wunderground v.1.15,2013-11-27 06:00:00,
2013-11-27 01:10:00,59.3,58.7,29.55,SE,143,7.0,7.0,98,0.32,,,0.13,Wunderground v.1.15,2013-11-27 06:10:00,
2013-11-27 01:20:00,59.7,59.1,29.54,East,94,8.0,8.0,98,0.05,,,0.13,Wunderground v.1.15,2013-11-27 06:20:00,
2013-11-27 01:30:00,60.0,59.4,29.55,SE,144,8.0,11.0,98,0.04,,,0.14,Wunderground v.1.15,2013-11-27 06:30:00,
2013-11-27 01:40:00,61.2,60.6,29.54,East,82,9.0,20.0,98,0.10,,,0.16,Wunderground v.1.15,2013-11-27 06:40:00,
2013-11-27 01:50:00,61.6,60.7,29.53,SW,232,9.0,9.0,97,0.09,,,0.18,Wunderground v.1.15,2013-11-27 06:50:00,
2013-11-27 02:00:00,61.8,60.9,29.52,SE,134,9.0,9.0,97,0.04,,,0.19,Wunderground v.1.15,2013-11-27 07:00:00,
2013-11-27 02:10:00,62.0,61.1,29.52,SE,137,9.0,9.0,97,0.08,,,0.20,Wunderground v.1.15,2013-11-27 07:10:00,
2013-11-27 02:20:00,62.2,61.3,29.51,SSE,160,9.0,9.0,97,0.16,,,0.22,Wunderground v.1.15,2013-11-27 07:20:00,
2013-11-27 02:30:00,62.4,61.5,29.50,West,264,8.0,8.0,97,0.28,,,0.26,Wunderground v.1.15,2013-11-27 07:30:00,
2013-11-27 02:40:00,62.5,61.6,29.50,SSE,156,7.0,19.0,97,0.15,,,0.30,Wunderground v.1.15,2013-11-27 07:40:00,
2013-11-27 02:50:00,62.7,61.8,29.49,SW,228,8.0,8.0,97,0.27,,,0.34,Wunderground v.1.15,2013-11-27 07:50:00,
2013-11-27 03:01:00,62.7,61.8,29.47,SW,228,7.0,7.0,97,0.07,,,0.35,Wunderground v.1.15,2013-11-27 08:01:00,
2013-11-27 03:10:00,62.7,62.1,29.47,ENE,62,8.0,8.0,98,0.04,,,0.35,Wunderground v.1.15,2013-11-27 08:10:00,
2013-11-27 03:20:00,62.7,62.1,29.45,West,281,8.0,9.0,98,0.00,,,0.35,Wunderground v.1.15,2013-11-27 08:20:00,
2013-11-27 03:30:00,63.0,62.4,29.45,East,98,9.0,9.0,98,0.00,,,0.35,Wunderground v.1.15,2013-11-27 08:30:00,
2013-11-27 03:40:00,63.2,62.6,29.44,East,96,7.0,7.0,98,0.00,,,0.35,Wunderground v.1.15,2013-11-27 08:40:00,
2013-11-27 03:50:00,63.7,63.1,29.44,SSW,205,7.0,7.0,98,0.00,,,0.35,Wunderground v.1.15,2013-11-27 08:50:00,
2013-11-27 04:00:00,64.0,63.1,29.43,SE,145,7.0,8.0,97,0.00,,,0.35,Wunderground v.1.15,2013-11-27 09:00:00,
2013-11-27 04:10:00,64.0,63.1,29.43,ESE,113,8.0,16.0,97,0.00,,,0.35,Wunderground v.1.15,2013-11-27 09:10:00,
2013-11-27 04:20:00,63.9,63.0,29.43,South,170,5.0,5.0,97,0.00,,,0.35,Wunderground v.1.15,2013-11-27 09:20:00,
2013-11-27 04:30:00,63.9,63.0,29.43,SSW,205,5.0,5.0,97,0.00,,,0.35,Wunderground v.1.15,2013-11-27 09:30:00,
2013-11-27 04:40:00,63.9,63.0,29.44,ENE,77,4.0,23.0,97,0.00,,,0.35,Wunderground v.1.15,2013-11-27 09:40:00,
2013-11-27 04:50:00,63.9,63.0,29.43,SW,215,3.0,3.0,97,0.00,,,0.36,Wunderground v.1.15,2013-11-27 09:50:00,
2013-11-27 05:01:00,64.0,63.1,29.43,West,259,2.0,2.0,97,0.00,,,0.36,Wunderground v.1.15,2013-11-27 10:01:00,
2013-11-27 05:10:00,62.1,60.4,29.44,SW,217,2.0,4.0,94,0.04,,,0.37,Wunderground v.1.15,2013-11-27 10:10:00,
2013-11-27 05:20:00,59.4,58.0,29.45,WSW,241,2.0,2.0,95,0.04,,,0.38,Wunderground v.1.15,2013-11-27 10:20:00,
2013-11-27 05:30:00,58.0,56.6,29.44,WNW,296,1.0,1.0,95,0.04,,,0.38,Wunderground v.1.15,2013-11-27 10:30:00,
2013-11-27 05:40:00,57.0,55.9,29.45,SSW,213,2.0,2.0,96,0.00,,,0.39,Wunderground v.1.15,2013-11-27 10:40:00,
2013-11-27 05:50:00,56.7,55.9,29.45,WNW,283,1.0,1.0,97,0.07,,,0.40,Wunderground v.1.15,2013-11-27 10:50:00,
2013-11-27 06:00:00,56.5,55.7,29.46,NW,304,3.0,6.0,97,0.00,,,0.40,Wunderground v.1.15,2013-11-27 11:00:00,
2013-11-27 06:10:00,55.0,53.9,29.47,West,274,4.0,4.0,96,0.00,,,0.41,Wunderground v.1.15,2013-11-27 11:10:00,
2013-11-27 06:20:00,53.8,52.7,29.48,WSW,247,3.0,3.0,96,0.00,,,0.41,Wunderground v.1.15,2013-11-27 11:20:00,
2013-11-27 06:30:00,52.5,51.1,29.48,SE,136,3.0,3.0,95,0.00,,,0.41,Wunderground v.1.15,2013-11-27 11:30:00,
2013-11-27 06:40:00,50.6,49.2,29.48,WSW,239,5.0,5.0,95,0.00,,,0.41,Wunderground v.1.15,2013-11-27 11:40:00,
2013-11-27 06:50:00,49.2,47.8,29.48,NW,305,3.0,9.0,95,0.00,,,0.41,Wunderground v.1.15,2013-11-27 11:50:00,
2013-11-27 07:00:00,48.4,47.3,29.47,WNW,290,2.0,2.0,96,0.00,,,0.42,Wunderground v.1.15,2013-11-27 12:00:00,
2013-11-27 07:10:00,48.0,46.9,29.47,WSW,246,2.0,2.0,96,0.00,,,0.42,Wunderground v.1.15,2013-11-27 12:10:00,
2013-11-27 07:20:00,47.7,46.6,29.48,NNE,31,1.0,1.0,96,0.00,,,0.42,Wunderground v.1.15,2013-11-27 12:20:00,
2013-11-27 07:30:00,46.9,45.8,29.49,ENE,75,3.0,4.0,96,0.10,,,0.44,Wunderground v.1.15,2013-11-27 12:30:00,
2013-11-27 07:40:00,46.5,45.4,29.50,WSW,254,1.0,1.0,96,0.57,,,0.51,Wunderground v.1.15,2013-11-27 12:40:00,
2013-11-27 07:50:00,46.2,45.4,29.50,West,260,2.0,15.0,97,0.12,,,0.54,Wunderground v.1.15,2013-11-27 12:50:00,
2013-11-27 08:00:00,45.9,45.1,29.49,WSW,258,2.0,2.0,97,0.07,,,0.55,Wunderground v.1.15,2013-11-27 13:00:00,
2013-11-27 08:10:00,45.5,44.4,29.49,SW,225,2.0,3.0,96,0.04,,,0.56,Wunderground v.1.15,2013-11-27 13:10:00,
2013-11-27 08:20:00,45.0,43.9,29.49,WNW,294,2.0,2.0,96,0.59,,,0.61,Wunderground v.1.15,2013-11-27 13:20:00,
2013-11-27 08:30:00,44.8,44.0,29.49,WNW,282,1.0,1.0,97,0.19,,,0.66,Wunderground v.1.15,2013-11-27 13:30:00,
2013-11-27 08:40:00,44.7,43.9,29.49,SW,227,2.0,2.0,97,0.13,,,0.68,Wunderground v.1.15,2013-11-27 13:40:00,
2013-11-27 08:50:00,44.4,43.6,29.48,WNW,290,2.0,10.0,97,0.21,,,0.71,Wunderground v.1.15,2013-11-27 13:50:00,
2013-11-27 09:00:00,44.4,43.6,29.48,WSW,241,2.0,2.0,97,0.10,,,0.72,Wunderground v.1.15,2013-11-27 14:00:00,
2013-11-27 09:10:00,44.1,43.3,29.48,East,95,2.0,2.0,97,0.12,,,0.75,Wunderground v.1.15,2013-11-27 14:10:00,
2013-11-27 09:20:00,43.9,43.1,29.48,North,349,1.0,3.0,97,0.11,,,0.76,Wunderground v.1.15,2013-11-27 14:20:00,
2013-11-27 09:30:00,43.7,42.6,29.47,SW,215,1.0,2.0,96,0.15,,,0.78,Wunderground v.1.15,2013-11-27 14:30:00,
2013-11-27 09:40:00,43.5,42.4,29.46,West,274,2.0,2.0,96,0.07,,,0.80,Wunderground v.1.15,2013-11-27 14:40:00,
2013-11-27 09:50:00,43.5,42.4,29.48,SE,126,2.0,8.0,96,0.05,,,0.80,Wunderground v.1.15,2013-11-27 14:50:00,
2013-11-27 10:00:00,43.3,42.2,29.48,WNW,297,3.0,5.0,96,0.00,,,0.80,Wunderground v.1.15,2013-11-27 15:00:00,
2013-11-27 10:10:00,43.1,41.8,29.49,NW,316,4.0,4.0,95,0.00,,,0.80,Wunderground v.1.15,2013-11-27 15:10:00,
2013-11-27 10:20:00,43.1,41.8,29.49,SSW,211,3.0,3.0,95,0.00,,,0.81,Wunderground v.1.15,2013-11-27 15:20:00,
2013-11-27 10:30:00,42.8,41.5,29.48,ENE,75,3.0,3.0,95,0.06,,,0.82,Wunderground v.1.15,2013-11-27 15:30:00,
2013-11-27 10:40:00,42.6,41.3,29.50,SW,224,3.0,9.0,95,0.10,,,0.84,Wunderground v.1.15,2013-11-27 15:40:00,
2013-11-27 10:50:00,42.5,41.2,29.49,NW,307,3.0,9.0,95,0.13,,,0.86,Wunderground v.1.15,2013-11-27 15:50:00,
2013-11-27 11:00:00,42.4,41.3,29.48,WNW,298,2.0,5.0,96,0.06,,,0.87,Wunderground v.1.15,2013-11-27 16:00:00,
2013-11-27 11:10:00,42.4,41.1,29.47,NW,325,3.0,5.0,95,0.04,,,0.87,Wunderground v.1.15,2013-11-27 16:10:00,
2013-11-27 11:20:00,42.4,41.1,29.44,NW,311,3.0,4.0,95,0.00,,,0.87,Wunderground v.1.15,2013-11-27 16:20:00,
2013-11-27 11:30:00,42.2,40.9,29.45,NE,42,3.0,3.0,95,0.00,,,0.87,Wunderground v.1.15,2013-11-27 16:30:00,
2013-11-27 11:40:00,41.9,40.6,29.44,NNW,348,3.0,13.0,95,0.00,,,0.87,Wunderground v.1.15,2013-11-27 16:40:00,
2013-11-27 11:50:00,42.2,40.9,29.44,WNW,300,2.0,13.0,95,0.00,,,0.88,Wunderground v.1.15,2013-11-27 16:50:00,
2013-11-27 12:00:00,42.0,40.4,29.45,West,266,3.0,3.0,94,0.00,,,0.88,Wunderground v.1.15,2013-11-27 17:00:00,
2013-11-27 12:10:00,42.0,40.7,29.44,NNE,17,3.0,3.0,95,0.00,,,0.88,Wunderground v.1.15,2013-11-27 17:10:00,
2013-11-27 12:20:00,41.7,40.1,29.44,WNW,295,2.0,9.0,94,0.13,,,0.90,Wunderground v.1.15,2013-11-27 17:20:00,
2013-11-27 12:30:00,41.6,40.3,29.44,West,272,3.0,3.0,95,0.08,,,0.92,Wunderground v.1.15,2013-11-27 17:30:00,
2013-11-27 12:40:00,41.4,40.1,29.43,SW,226,3.0,11.0,95,0.14,,,0.94,Wunderground v.1.15,2013-11-27 17:40:00,
2013-11-27 12:50:00,41.3,40.0,29.44,NW,307,3.0,11.0,95,0.07,,,0.95,Wunderground v.1.15,2013-11-27 17:50:00,
2013-11-27 13:00:00,41.2,39.9,29.43,SW,220,3.0,5.0,95,0.05,,,0.96,Wunderground v.1.15,2013-11-27 18:00:00,
2013-11-27 13:10:00,41.1,39.8,29.47,WSW,242,3.0,3.0,95,0.04,,,0.96,Wunderground v.1.15,2013-11-27 18:10:00,
2013-11-27 13:20:00,41.0,39.7,29.44,SSE,159,3.0,3.0,95,0.12,,,0.98,Wunderground v.1.15,2013-11-27 18:20:00,
2013-11-27 13:30:00,41.0,39.7,29.41,SE,135,3.0,3.0,95,0.06,,,0.98,Wunderground v.1.15,2013-11-27 18:30:00,
2013-11-27 13:40:00,41.0,39.7,29.40,NNW,328,4.0,4.0,95,0.00,,,0.98,Wunderground v.1.15,2013-11-27 18:40:00,
2013-11-27 13:50:00,40.8,39.5,29.45,West,274,3.0,12.0,95,0.00,,,0.98,Wunderground v.1.15,2013-11-27 18:50:00,
2013-11-27 14:00:00,40.5,38.9,29.47,NNW,345,4.0,4.0,94,0.12,,,1.00,Wunderground v.1.15,2013-11-27 19:00:00,
2013-11-27 14:10:00,40.2,38.6,29.47,North,11,3.0,3.0,94,0.14,,,1.02,Wunderground v.1.15,2013-11-27 19:10:00,
2013-11-27 14:20:00,40.1,38.5,29.44,East,96,3.0,3.0,94,0.06,,,1.03,Wunderground v.1.15,2013-11-27 19:20:00,
2013-11-27 14:30:00,40.0,38.7,29.47,East,89,2.0,2.0,95,0.04,,,1.03,Wunderground v.1.15,2013-11-27 19:30:00,
2013-11-27 14:40:00,39.9,38.6,29.43,WSW,251,2.0,12.0,95,0.00,,,1.03,Wunderground v.1.15,2013-11-27 19:40:00,
2013-11-27 14:50:00,39.7,38.1,29.41,NNE,21,3.0,12.0,94,0.00,,,1.04,Wunderground v.1.15,2013-11-27 19:50:00,
2013-11-27 15:01:00,39.5,37.9,29.42,NW,307,3.0,11.0,94,0.00,,,1.04,Wunderground v.1.15,2013-11-27 20:01:00,
2013-11-27 15:10:00,39.4,37.8,29.43,SSE,159,4.0,9.0,94,0.00,,,1.04,Wunderground v.1.15,2013-11-27 20:10:00,
2013-11-27 15:20:00,39.3,37.7,29.47,SSW,207,4.0,4.0,94,0.00,,,1.04,Wunderground v.1.15,2013-11-27 20:20:00,
2013-11-27 15:30:00,39.2,37.6,29.48,WNW,295,4.0,5.0,94,0.00,,,1.04,Wunderground v.1.15,2013-11-27 20:30:00,
2013-11-27 15:40:00,39.0,37.1,29.51,ESE,123,5.0,5.0,93,0.00,,,1.05,Wunderground v.1.15,2013-11-27 20:40:00,
2013-11-27 15:50:00,38.9,36.8,29.51,West,272,5.0,16.0,92,0.00,,,1.05,Wunderground v.1.15,2013-11-27 20:50:00,
2013-11-27 16:00:00,38.6,36.5,29.51,West,274,4.0,4.0,92,0.00,,,1.06,Wunderground v.1.15,2013-11-27 21:00:00,
2013-11-27 16:10:00,38.2,36.1,29.53,SW,226,5.0,5.0,92,0.06,,,1.07,Wunderground v.1.15,2013-11-27 21:10:00,
2013-11-27 16:20:00,37.7,35.9,29.55,South,169,5.0,5.0,93,0.04,,,1.07,Wunderground v.1.15,2013-11-27 21:20:00,
2013-11-27 16:30:00,37.4,35.8,29.56,West,278,4.0,4.0,94,0.00,,,1.07,Wunderground v.1.15,2013-11-27 21:30:00,
2013-11-27 16:40:00,37.1,35.5,29.57,West,278,5.0,5.0,94,0.00,,,1.08,Wunderground v.1.15,2013-11-27 21:40:00,
2013-11-27 16:50:00,37.1,35.5,29.58,SSW,209,4.0,4.0,94,0.00,,,1.08,Wunderground v.1.15,2013-11-27 21:50:00,
2013-11-27 17:00:00,37.1,35.5,29.60,WNW,302,5.0,10.0,94,0.00,,,1.08,Wunderground v.1.15,2013-11-27 22:00:00,
2013-11-27 17:10:00,37.0,35.2,29.60,West,278,5.0,5.0,93,0.00,,,1.08,Wunderground v.1.15,2013-11-27 22:10:00,
2013-11-27 17:20:00,37.0,35.2,29.62,WSW,253,6.0,6.0,93,0.00,,,1.08,Wunderground v.1.15,2013-11-27 22:20:00,
2013-11-27 17:30:00,36.9,35.1,29.62,WNW,294,3.0,3.0,93,0.00,,,1.08,Wunderground v.1.15,2013-11-27 22:30:00,
2013-11-27 17:40:00,36.9,34.8,29.62,NW,304,5.0,19.0,92,0.00,,,1.08,Wunderground v.1.15,2013-11-27 22:40:00,
2013-11-27 17:50:00,37.0,34.6,29.63,NNW,341,5.0,19.0,91,0.00,,,1.08,Wunderground v.1.15,2013-11-27 22:50:00,
2013-11-27 18:00:00,37.2,34.5,29.64,WNW,288,5.0,5.0,90,0.00,,,1.08,Wunderground v.1.15,2013-11-27 23:00:00,
2013-11-27 18:10:00,37.1,34.7,29.64,SSE,154,3.0,3.0,91,0.00,,,1.08,Wunderground v.1.15,2013-11-27 23:10:00,
2013-11-27 18:20:00,37.0,34.3,29.65,West,273,4.0,4.0,90,0.00,,,1.08,Wunderground v.1.15,2013-11-27 23:20:00,
2013-11-27 18:30:00,37.1,34.4,29.66,West,264,4.0,7.0,90,0.00,,,1.08,Wunderground v.1.15,2013-11-27 23:30:00,
2013-11-27 18:40:00,37.2,34.3,29.67,NW,316,5.0,23.0,89,0.00,,,1.08,Wunderground v.1.15,2013-11-27 23:40:00,
2013-11-27 18:50:00,37.3,34.4,29.68,West,273,4.0,4.0,89,0.00,,,1.08,Wunderground v.1.15,2013-11-27 23:50:00,
2013-11-27 19:01:00,37.3,34.1,29.69,ESE,110,4.0,5.0,88,0.00,,,1.08,Wunderground v.1.15,2013-11-28 00:01:00,
2013-11-27 19:10:00,37.2,34.0,29.70,West,264,3.0,4.0,88,0.00,,,1.08,Wunderground v.1.15,2013-11-28 00:10:00,
2013-11-27 19:20:00,37.2,34.0,29.70,NNW,327,4.0,6.0,88,0.00,,,1.08,Wunderground v.1.15,2013-11-28 00:20:00,
2013-11-27 19:30:00,37.3,33.8,29.71,NNW,330,4.0,4.0,87,0.00,,,1.08,Wunderground v.1.15,2013-11-28 00:30:00,
2013-11-27 19:40:00,37.5,34.0,29.71,SW,226,4.0,16.0,87,0.00,,,1.08,Wunderground v.1.15,2013-11-28 00:40:00,
2013-11-27 19:50:00,37.6,33.8,29.72,WNW,297,5.0,16.0,86,0.00,,,1.08,Wunderground v.1.15,2013-11-28 00:50:00,
2013-11-27 20:00:00,37.6,32.9,29.74,WNW,293,5.0,5.0,83,0.00,,,1.08,Wunderground v.1.15,2013-11-28 01:00:00,
2013-11-27 20:10:00,37.5,32.5,29.74,WNW,282,5.0,5.0,82,0.00,,,1.08,Wunderground v.1.15,2013-11-28 01:10:00,
2013-11-27 20:20:00,37.4,32.1,29.74,WNW,297,5.0,13.0,81,0.00,,,1.08,Wunderground v.1.15,2013-11-28 01:20:00,
2013-11-27 20:30:00,37.4,31.5,29.75,NNW,333,5.0,5.0,79,0.00,,,1.08,Wunderground v.1.15,2013-11-28 01:30:00,
2013-11-27 20:40:00,37.2,30.7,29.75,South,174,4.0,4.0,77,0.00,,,1.08,Wunderground v.1.15,2013-11-28 01:40:00,
2013-11-27 20:50:00,37.2,30.3,29.76,West,273,6.0,18.0,76,0.00,,,1.08,Wunderground v.1.15,2013-11-28 01:50:00,
2013-11-27 21:01:00,37.1,30.2,29.78,WSW,242,4.0,4.0,76,0.00,,,1.08,Wunderground v.1.15,2013-11-28 02:01:00,
2013-11-27 21:10:00,36.9,30.0,29.78,West,280,4.0,4.0,76,0.00,,,1.08,Wunderground v.1.15,2013-11-28 02:10:00,
2013-11-27 21:20:00,36.8,29.0,29.79,NW,308,5.0,5.0,73,0.00,,,1.08,Wunderground v.1.15,2013-11-28 02:20:00,
2013-11-27 21:30:00,36.7,27.8,29.81,West,265,4.0,4.0,70,0.00,,,1.08,Wunderground v.1.15,2013-11-28 02:30:00,
2013-11-27 21:40:00,36.5,26.9,29.82,WSW,250,4.0,19.0,68,0.00,,,1.08,Wunderground v.1.15,2013-11-28 02:40:00,
2013-11-27 21:50:00,36.4,27.2,29.82,NW,325,4.0,4.0,69,0.00,,,1.08,Wunderground v.1.15,2013-11-28 02:50:00,
2013-11-27 22:00:00,36.1,25.8,29.83,WNW,302,4.0,6.0,66,0.00,,,1.08,Wunderground v.1.15,2013-11-28 03:00:00,
2013-11-27 22:10:00,35.8,24.8,29.84,WSW,239,4.0,4.0,64,0.00,,,1.08,Wunderground v.1.15,2013-11-28 03:10:00,
2013-11-27 22:20:00,35.4,25.5,29.85,NW,304,3.0,3.0,67,0.00,,,1.08,Wunderground v.1.15,2013-11-28 03:20:00,
2013-11-27 22:30:00,35.2,25.7,29.86,SE,136,5.0,5.0,68,0.00,,,1.08,Wunderground v.1.15,2013-11-28 03:30:00,
2013-11-27 22:40:00,34.9,25.4,29.86,SSW,211,5.0,18.0,68,0.00,,,1.08,Wunderground v.1.15,2013-11-28 03:40:00,
2013-11-27 22:50:00,34.7,24.5,29.88,SW,236,4.0,4.0,66,0.00,,,1.08,Wunderground v.1.15,2013-11-28 03:50:00,
2013-11-27 23:00:00,34.5,23.9,29.88,WSW,239,6.0,6.0,65,0.00,,,1.08,Wunderground v.1.15,2013-11-28 04:00:00,
2013-11-27 23:10:00,34.2,22.1,29.89,WNW,294,6.0,10.0,61,0.00,,,1.08,Wunderground v.1.15,2013-11-28 04:10:00,
2013-11-27 23:20:00,33.7,22.1,29.91,SW,217,5.0,5.0,62,0.00,,,1.08,Wunderground v.1.15,2013-11-28 04:20:00,
2013-11-27 23:30:00,33.2,20.8,29.92,North,4,5.0,5.0,60,0.00,,,1.08,Wunderground v.1.15,2013-11-28 04:30:00,
2013-11-27 23:40:00,32.9,20.5,29.93,SW,232,7.0,14.0,60,0.00,,,1.08,Wunderground v.1.15,2013-11-28 04:40:00,
2013-11-27 23:50:00,32.4,20.4,29.93,WNW,301,4.0,14.0,61,0.00,,,1.08,Wunderground v.1.15,2013-11-28 04:50:00,